createdAt,value
2023-03-06T00:01:35.531Z,6.47
2023-03-06T00:04:37.466Z,6.38
2023-03-06T00:07:39.538Z,6.22
2023-03-06T00:10:41.485Z,5.50
2023-03-06T00:13:43.342Z,5.05
2023-03-06T00:16:45.219Z,4.82
2023-03-06T00:19:47.251Z,4.47
2023-03-06T00:22:49.717Z,4.73
2023-03-06T00:25:51.952Z,4.60
2023-03-06T00:28:53.858Z,4.70
2023-03-06T00:31:55.873Z,4.75
2023-03-06T00:34:57.879Z,4.53
2023-03-06T00:37:59.950Z,4.68
2023-03-06T00:41:10.463Z,5.50
2023-03-06T00:44:12.387Z,5.82
2023-03-06T00:47:17.376Z,5.97
2023-03-06T00:50:19.358Z,4.38
2023-03-06T00:53:21.305Z,3.80
2023-03-06T00:56:24.138Z,3.67
2023-03-06T00:59:27.695Z,3.45
2023-03-06T01:02:29.641Z,3.50
2023-03-06T01:05:34.795Z,4.13
2023-03-06T01:08:40.689Z,4.00
2023-03-06T01:11:42.627Z,3.80
2023-03-06T01:14:48.156Z,3.50
2023-03-06T01:17:57.177Z,3.90
2023-03-06T01:21:01.459Z,3.35
2023-03-06T01:24:06.614Z,3.53
2023-03-06T01:27:08.573Z,3.45
2023-03-06T01:30:11.628Z,3.85
2023-03-06T01:33:14.766Z,3.17
2023-03-06T01:36:19.077Z,3.22
2023-03-06T01:39:21.016Z,3.47
2023-03-06T01:42:23.006Z,3.30
2023-03-06T01:45:24.865Z,3.50
2023-03-06T01:48:26.898Z,3.92
2023-03-06T01:51:37.780Z,3.70
2023-03-06T01:54:46.749Z,4.18
2023-03-06T01:57:53.324Z,3.90
2023-03-06T02:00:55.363Z,4.25
2023-03-06T02:04:01.577Z,3.70
2023-03-06T02:07:05.001Z,4.22
2023-03-06T02:10:10.215Z,3.90
2023-03-06T02:13:12.146Z,4.10
2023-03-06T02:16:14.833Z,3.88
2023-03-06T02:19:43.412Z,3.97
2023-03-06T02:23:03.968Z,4.20
2023-03-06T02:26:08.539Z,3.80
2023-03-06T02:29:10.892Z,3.72
2023-03-06T02:32:12.930Z,3.40
2023-03-06T02:35:38.671Z,3.72
2023-03-06T02:38:48.560Z,3.50
2023-03-06T02:41:51.080Z,3.47
2023-03-06T02:44:57.267Z,3.90
2023-03-06T02:48:00.499Z,3.63
2023-03-06T02:51:03.771Z,3.75
2023-03-06T02:54:07.374Z,3.58
2023-03-06T02:57:09.351Z,2.95
2023-03-06T03:00:12.293Z,3.47
2023-03-06T03:03:17.019Z,3.00
2023-03-06T03:06:18.886Z,3.40
2023-03-06T03:09:21.561Z,3.40
2023-03-06T03:12:23.758Z,3.50
2023-03-06T03:15:26.295Z,3.20
2023-03-06T03:18:29.069Z,2.90
2023-03-06T03:21:31.205Z,3.63
2023-03-06T03:24:33.697Z,3.20
2023-03-06T03:27:35.965Z,3.30
2023-03-06T03:30:41.108Z,3.58
2023-03-06T03:33:44.207Z,3.75
2023-03-06T03:36:49.838Z,3.38
2023-03-06T03:39:52.018Z,3.42
2023-03-06T03:42:54.057Z,2.50
2023-03-06T03:45:55.877Z,4.30
2023-03-06T03:49:01.986Z,4.60
2023-03-06T03:52:04.300Z,4.00
2023-03-06T03:55:09.354Z,3.95
2023-03-06T03:58:13.595Z,5.05
2023-03-06T04:01:15.974Z,4.95
2023-03-06T04:04:21.258Z,5.57
2023-03-06T04:10:25.766Z,4.20
2023-03-06T04:13:30.129Z,4.93
2023-03-06T04:16:37.072Z,4.30
2023-03-06T04:19:39.156Z,4.70
2023-03-06T04:22:42.296Z,4.10
2023-03-06T04:25:46.034Z,4.22
2023-03-06T04:28:48.546Z,4.30
2023-03-06T04:31:50.971Z,4.28
2023-03-06T04:34:52.850Z,4.47
2023-03-06T04:37:55.532Z,6.60
2023-03-06T04:40:58.987Z,7.55
2023-03-06T04:44:01.123Z,5.10
2023-03-06T04:47:03.186Z,4.65
2023-03-06T04:50:05.936Z,4.03
2023-03-06T04:53:08.787Z,4.38
2023-03-06T04:56:10.763Z,4.20
2023-03-06T04:59:12.672Z,4.82
2023-03-06T05:02:14.566Z,4.55
2023-03-06T05:05:18.865Z,6.10
2023-03-06T05:08:20.966Z,9.30
2023-03-06T05:11:22.910Z,6.17
2023-03-06T05:14:24.862Z,4.72
2023-03-06T05:17:26.829Z,4.72
2023-03-06T05:20:30.929Z,4.53
2023-03-06T05:23:35.496Z,4.93
2023-03-06T05:26:37.410Z,4.35
2023-03-06T05:29:41.984Z,4.40
2023-03-06T05:32:47.186Z,5.22
2023-03-06T05:35:51.569Z,4.93
2023-03-06T05:38:53.549Z,4.50
2023-03-06T05:41:55.487Z,4.68
2023-03-06T05:44:57.311Z,4.95
2023-03-06T05:47:59.179Z,4.55
2023-03-06T05:51:02.397Z,4.75
2023-03-06T05:54:04.329Z,4.28
2023-03-06T05:57:06.426Z,4.85
2023-03-06T06:00:09.289Z,5.00
2023-03-06T06:03:20.565Z,5.00
2023-03-06T06:06:22.378Z,5.50
2023-03-06T06:09:25.503Z,4.93
2023-03-06T06:12:27.862Z,5.20
2023-03-06T06:15:33.007Z,4.70
2023-03-06T06:18:35.030Z,4.78
2023-03-06T06:21:40.349Z,4.78
2023-03-06T06:27:44.326Z,4.68
2023-03-06T06:30:46.229Z,5.47
2023-03-06T06:33:48.248Z,5.30
2023-03-06T06:36:53.425Z,5.25
2023-03-06T06:39:55.665Z,5.07
2023-03-06T06:42:57.519Z,5.22
2023-03-06T06:46:16.455Z,5.20
2023-03-06T06:49:21.389Z,5.28
2023-03-06T06:52:24.756Z,4.97
2023-03-06T06:55:27.212Z,4.80
2023-03-06T06:58:29.052Z,4.97
2023-03-06T07:01:31.063Z,4.90
2023-03-06T07:04:33.212Z,4.70
2023-03-06T07:07:40.572Z,5.22
2023-03-06T07:10:42.492Z,5.10
2023-03-06T07:13:47.060Z,4.90
2023-03-06T07:16:49.028Z,5.15
2023-03-06T07:19:53.417Z,5.63
2023-03-06T07:22:56.591Z,4.57
2023-03-06T07:25:58.582Z,5.03
2023-03-06T07:29:00.568Z,5.00
2023-03-06T07:32:05.143Z,5.25
2023-03-06T07:35:19.661Z,4.70
2023-03-06T07:38:22.310Z,5.07
2023-03-06T07:41:24.167Z,4.60
2023-03-06T07:44:27.831Z,4.00
2023-03-06T07:47:29.746Z,3.70
2023-03-06T07:50:32.952Z,3.60
2023-03-06T07:53:35.500Z,3.50
2023-03-06T07:56:37.422Z,3.50
2023-03-06T07:59:39.365Z,3.10
2023-03-06T08:03:41.967Z,3.40
2023-03-06T08:06:43.820Z,3.10
2023-03-06T08:09:48.184Z,3.25
2023-03-06T08:12:50.029Z,3.67
2023-03-06T08:15:51.910Z,3.97
2023-03-06T08:18:54.076Z,3.55
2023-03-06T08:21:56.032Z,4.47
2023-03-06T08:24:57.911Z,3.90
2023-03-06T08:28:00.869Z,3.80
2023-03-06T08:34:20.084Z,3.50
2023-03-06T08:37:24.111Z,2.80
2023-03-06T08:40:30.454Z,2.55
2023-03-06T08:43:32.368Z,2.92
2023-03-06T08:46:35.807Z,3.20
2023-03-06T08:49:39.717Z,3.50
2023-03-06T08:52:41.596Z,2.90
2023-03-06T08:55:43.603Z,2.70
2023-03-06T08:58:46.061Z,3.40
2023-03-06T09:01:48.050Z,3.80
2023-03-06T09:04:50.059Z,3.72
2023-03-06T09:07:52.110Z,3.10
2023-03-06T09:10:55.107Z,4.10
2023-03-06T09:17:01.765Z,5.35
2023-03-06T09:20:06.098Z,4.63
2023-03-06T09:23:12.201Z,5.03
2023-03-06T09:26:14.403Z,4.22
2023-03-06T09:29:17.212Z,3.85
2023-03-06T09:32:19.382Z,4.65
2023-03-06T09:35:21.396Z,2.90
2023-03-06T09:38:27.837Z,4.50
2023-03-06T09:41:33.162Z,4.57
2023-03-06T09:44:38.687Z,4.13
2023-03-06T09:48:02.124Z,4.40
2023-03-06T09:54:16.432Z,3.88
2023-03-06T09:57:31.999Z,3.20
2023-03-06T10:00:46.792Z,3.78
2023-03-06T10:04:03.710Z,3.95
2023-03-06T10:07:15.739Z,3.83
2023-03-06T10:10:42.808Z,4.72
2023-03-06T10:13:51.964Z,4.10
2023-03-06T10:16:54.712Z,3.33
2023-03-06T10:19:59.045Z,3.45
2023-03-06T10:23:23.695Z,3.47
2023-03-06T10:26:36.376Z,3.60
2023-03-06T10:30:06.876Z,3.50
2023-03-06T10:33:12.592Z,3.47
2023-03-06T10:36:19.372Z,3.20
2023-03-06T10:39:22.988Z,5.85
2023-03-06T10:42:25.069Z,4.30
2023-03-06T10:45:35.205Z,3.97
2023-03-06T10:48:42.877Z,4.10
2023-03-06T10:52:03.239Z,3.90
2023-03-06T10:55:26.011Z,4.63
2023-03-06T10:58:30.662Z,4.20
2023-03-06T11:01:32.849Z,4.32
2023-03-06T11:04:36.610Z,4.95
2023-03-06T11:07:54.254Z,4.82
2023-03-06T11:11:09.264Z,4.80
2023-03-06T11:14:22.965Z,4.95
2023-03-06T11:17:32.176Z,5.03
2023-03-06T11:20:52.622Z,5.40
2023-03-06T11:23:58.963Z,5.40
2023-03-06T11:27:09.361Z,5.65
2023-03-06T11:30:27.041Z,5.70
2023-03-06T11:33:46.515Z,6.03
2023-03-06T11:36:56.576Z,6.15
2023-03-06T11:40:10.632Z,5.80
2023-03-06T11:43:31.871Z,6.05
2023-03-06T11:46:48.771Z,6.55
2023-03-06T11:50:20.471Z,6.05
2023-03-06T11:53:44.402Z,7.50
2023-03-06T11:56:59.962Z,6.45
2023-03-06T12:00:05.084Z,6.60
2023-03-06T12:03:25.988Z,8.30
2023-03-06T12:06:51.627Z,7.95
2023-03-06T12:10:32.770Z,6.47
2023-03-06T12:14:10.262Z,6.70
2023-03-06T12:17:23.966Z,6.90
2023-03-06T12:20:40.175Z,6.60
2023-03-06T12:24:16.237Z,7.80
2023-03-06T12:31:06.010Z,9.38
2023-03-06T12:34:18.747Z,7.40
2023-03-06T12:37:31.062Z,6.72
2023-03-06T12:40:51.682Z,5.63
2023-03-06T12:43:59.394Z,7.80
2023-03-06T12:47:10.420Z,8.35
2023-03-06T12:50:23.573Z,6.60
2023-03-06T12:53:28.062Z,7.35
2023-03-06T12:56:34.119Z,7.80
2023-03-06T12:59:39.309Z,10.90
2023-03-06T13:03:06.649Z,8.80
2023-03-06T13:06:25.581Z,9.70
2023-03-06T13:09:56.842Z,7.65
2023-03-06T13:13:05.156Z,9.35
2023-03-06T13:16:21.569Z,9.82
2023-03-06T13:19:27.648Z,20.80
2023-03-06T13:22:30.045Z,39.22
2023-03-06T13:25:32.747Z,17.48
2023-03-06T13:28:53.288Z,10.32
2023-03-06T13:32:06.179Z,17.55
2023-03-06T13:35:32.257Z,10.20
2023-03-06T13:38:53.160Z,7.85
2023-03-06T13:42:03.373Z,8.45
2023-03-06T13:45:15.685Z,10.57
2023-03-06T13:48:47.672Z,12.93
2023-03-06T13:52:19.520Z,8.77
2023-03-06T13:55:50.530Z,7.75
2023-03-06T13:59:14.329Z,9.48
2023-03-06T14:02:37.399Z,11.15
2023-03-06T14:05:48.729Z,9.63
2023-03-06T14:08:51.248Z,9.85
2023-03-06T14:12:02.424Z,8.45
2023-03-06T14:15:16.417Z,8.60
2023-03-06T14:18:40.009Z,8.45
2023-03-06T14:21:51.228Z,7.15
2023-03-06T14:25:00.760Z,7.63
2023-03-06T14:28:13.545Z,11.52
2023-03-06T14:31:21.318Z,11.38
2023-03-06T14:34:25.206Z,13.52
2023-03-06T14:37:29.125Z,14.13
2023-03-06T14:40:44.071Z,10.07
2023-03-06T14:43:46.165Z,9.20
2023-03-06T14:46:50.816Z,10.83
2023-03-06T14:50:30.394Z,9.80
2023-03-06T14:53:34.251Z,8.25
2023-03-06T14:56:42.085Z,9.35
2023-03-06T14:59:58.746Z,12.35
2023-03-06T15:03:01.347Z,10.85
2023-03-06T15:06:08.892Z,8.35
2023-03-06T15:09:25.547Z,7.55
2023-03-06T15:12:27.358Z,7.60
2023-03-06T15:15:32.662Z,8.18
2023-03-06T15:18:39.040Z,7.85
2023-03-06T15:21:41.057Z,8.30
2023-03-06T15:24:43.004Z,7.88
2023-03-06T15:27:56.914Z,9.07
2023-03-06T15:31:23.522Z,8.30
2023-03-06T15:34:25.692Z,8.35
2023-03-06T15:37:28.967Z,9.37
2023-03-06T15:40:31.981Z,7.90
2023-03-06T15:46:44.358Z,7.85
2023-03-06T15:49:46.461Z,6.20
2023-03-06T15:52:49.518Z,8.27
2023-03-06T15:58:56.400Z,8.07
2023-03-06T16:02:02.600Z,8.43
2023-03-06T16:05:17.661Z,8.88
2023-03-06T16:08:19.839Z,8.15
2023-03-06T16:11:41.920Z,8.93
2023-03-06T16:14:49.071Z,8.23
2023-03-06T16:17:56.146Z,7.78
2023-03-06T16:20:59.112Z,7.80
2023-03-06T16:27:03.188Z,7.88
2023-03-06T16:30:05.591Z,8.10
2023-03-06T16:33:10.655Z,7.97
2023-03-06T16:36:14.831Z,7.68
2023-03-06T16:39:22.344Z,7.63
2023-03-06T16:42:24.253Z,9.32
2023-03-06T16:45:26.616Z,8.48
2023-03-06T16:48:28.514Z,8.38
2023-03-06T16:51:33.373Z,8.68
2023-03-06T16:54:35.166Z,7.43
2023-03-06T16:57:37.062Z,8.32
2023-03-06T17:00:41.296Z,8.20
2023-03-06T17:03:43.416Z,8.38
2023-03-06T17:06:47.680Z,8.77
2023-03-06T17:09:50.583Z,8.15
2023-03-06T17:12:52.461Z,8.52
2023-03-06T17:15:59.527Z,8.23
2023-03-06T17:19:02.513Z,9.70
2023-03-06T17:22:04.456Z,10.50
2023-03-06T17:25:09.298Z,10.73
2023-03-06T17:28:11.455Z,13.10
2023-03-06T17:31:18.868Z,12.65
2023-03-06T17:34:22.077Z,12.75
2023-03-06T17:37:25.567Z,12.75
2023-03-06T17:40:30.577Z,13.63
2023-03-06T17:43:32.625Z,14.60
2023-03-06T17:46:36.906Z,14.87
2023-03-06T17:49:38.805Z,16.60
2023-03-06T17:52:43.575Z,18.50
2023-03-06T17:55:45.562Z,17.88
2023-03-06T17:58:49.934Z,18.33
2023-03-06T18:01:51.825Z,19.02
2023-03-06T18:04:58.744Z,18.27
2023-03-06T18:08:00.687Z,17.55
2023-03-06T18:11:04.431Z,21.15
2023-03-06T18:14:06.323Z,18.88
2023-03-06T18:17:08.258Z,20.27
2023-03-06T18:20:12.887Z,18.10
2023-03-06T18:23:14.815Z,16.60
2023-03-06T18:26:24.158Z,16.98
2023-03-06T18:29:28.285Z,19.88
2023-03-06T18:32:30.236Z,27.63
2023-03-06T18:35:36.018Z,27.70
2023-03-06T18:38:45.728Z,28.95
2023-03-06T18:41:47.860Z,28.35
2023-03-06T18:44:49.764Z,24.60
2023-03-06T18:47:51.741Z,21.85
2023-03-06T18:50:53.725Z,18.38
2023-03-06T18:54:00.371Z,16.50
2023-03-06T18:57:05.124Z,15.85
2023-03-06T19:00:08.273Z,16.70
2023-03-06T19:03:13.563Z,15.50
2023-03-06T19:06:21.349Z,16.83
2023-03-06T19:09:23.239Z,15.52
2023-03-06T19:12:25.065Z,15.50
2023-03-06T19:15:26.916Z,15.23
2023-03-06T19:18:31.857Z,15.05
2023-03-06T19:21:33.787Z,15.63
2023-03-06T19:24:35.696Z,13.35
2023-03-06T19:27:39.988Z,13.55
2023-03-06T19:30:41.897Z,13.97
2023-03-06T19:33:44.096Z,15.27
2023-03-06T19:36:45.877Z,16.38
2023-03-06T19:39:47.720Z,16.35
2023-03-06T19:42:50.334Z,17.33
2023-03-06T19:45:52.277Z,14.68
2023-03-06T19:48:59.161Z,15.85
2023-03-06T19:52:01.558Z,15.68
2023-03-06T19:55:03.692Z,15.27
2023-03-06T19:58:05.999Z,13.80
2023-03-06T20:01:11.230Z,27.40
2023-03-06T20:04:13.144Z,25.88
2023-03-06T20:07:15.043Z,33.42
2023-03-06T20:10:17.413Z,22.58
2023-03-06T20:13:19.268Z,13.48
2023-03-06T20:16:21.151Z,14.05
2023-03-06T20:19:22.999Z,14.48
2023-03-06T20:22:25.226Z,13.80
2023-03-06T20:25:27.101Z,15.10
2023-03-06T20:28:28.987Z,13.98
2023-03-06T20:31:31.220Z,16.13
2023-03-06T20:34:33.215Z,15.70
2023-03-06T20:37:35.155Z,23.23
2023-03-06T20:40:42.432Z,19.92
2023-03-06T20:43:44.584Z,25.00
2023-03-06T20:46:49.939Z,25.07
2023-03-06T20:49:51.838Z,31.80
2023-03-06T20:52:58.484Z,53.35
2023-03-06T20:56:00.314Z,110.68
2023-03-06T20:59:03.232Z,71.95
2023-03-06T21:02:09.732Z,40.30
2023-03-06T21:05:11.716Z,55.25
2023-03-06T21:08:14.583Z,41.22
2023-03-06T21:11:18.459Z,23.88
2023-03-06T21:14:20.348Z,22.27
2023-03-06T21:17:22.158Z,20.85
2023-03-06T21:20:24.438Z,19.25
2023-03-06T21:23:26.351Z,20.92
2023-03-06T21:26:30.144Z,19.55
2023-03-06T21:29:32.112Z,18.75
2023-03-06T21:32:36.674Z,21.17
2023-03-06T21:35:40.313Z,22.00
2023-03-06T21:38:44.809Z,24.05
2023-03-06T21:41:46.706Z,25.88
2023-03-06T21:44:51.003Z,23.13
2023-03-06T21:47:55.705Z,18.15
2023-03-06T21:51:05.020Z,16.98
2023-03-06T21:54:07.247Z,20.17
2023-03-06T21:57:09.088Z,23.55
2023-03-06T22:00:12.939Z,20.45
2023-03-06T22:03:14.851Z,22.10
2023-03-06T22:06:31.414Z,17.83
2023-03-06T22:09:36.076Z,14.65
2023-03-06T22:12:43.537Z,15.63
2023-03-06T22:15:55.203Z,24.08
2023-03-06T22:18:57.154Z,35.85
2023-03-06T22:21:59.020Z,13.00
2023-03-06T22:25:00.870Z,19.83
2023-03-06T22:28:05.311Z,19.17
2023-03-06T22:31:15.641Z,34.60
2023-03-06T22:34:17.865Z,56.88
2023-03-06T22:37:21.988Z,21.80
2023-03-06T22:40:24.213Z,17.30
2023-03-06T22:43:27.578Z,16.50
2023-03-06T22:46:30.463Z,12.32
2023-03-06T22:49:32.770Z,12.18
2023-03-06T22:52:37.055Z,9.40
2023-03-06T22:55:38.871Z,11.95
2023-03-06T22:58:40.913Z,17.92
2023-03-06T23:01:43.955Z,13.37
2023-03-06T23:07:51.301Z,12.80
2023-03-06T23:10:53.245Z,17.83
2023-03-06T23:14:16.615Z,23.73
2023-03-06T23:21:01.905Z,24.00
2023-03-06T23:24:22.599Z,17.52
2023-03-06T23:27:24.462Z,15.50
2023-03-06T23:30:26.679Z,17.13
2023-03-06T23:33:28.629Z,24.08
2023-03-06T23:36:31.259Z,25.85
2023-03-06T23:39:33.743Z,15.63
2023-03-06T23:42:35.783Z,13.13
2023-03-06T23:45:37.671Z,13.25
2023-03-06T23:48:40.893Z,13.80
2023-03-06T23:51:42.794Z,13.60
2023-03-06T23:54:44.622Z,14.07
2023-03-06T23:57:46.621Z,14.98
